createdAt,value
2022-08-25T00:01:55.032Z,102074.78
2022-08-25T00:04:59.950Z,102081.16
2022-08-25T00:08:08.522Z,102072.00
2022-08-25T00:11:18.114Z,102076.38
2022-08-25T00:14:33.488Z,102070.09
2022-08-25T00:17:37.985Z,102069.31
2022-08-25T00:20:43.226Z,102062.41
2022-08-25T00:23:54.292Z,102072.22
2022-08-25T00:27:00.359Z,102071.34
2022-08-25T00:30:06.450Z,102075.09
2022-08-25T00:33:11.246Z,102077.97
2022-08-25T00:36:17.318Z,102081.38
2022-08-25T00:39:23.626Z,102077.97
2022-08-25T00:42:28.741Z,102075.69
2022-08-25T00:45:35.394Z,102067.72
2022-08-25T00:48:43.582Z,102068.47
2022-08-25T00:52:00.022Z,102076.66
2022-08-25T00:55:34.286Z,102082.94
2022-08-25T00:58:40.255Z,102078.56
2022-08-25T01:01:44.764Z,102074.41
2022-08-25T01:04:49.388Z,102078.78
2022-08-25T01:07:58.599Z,102084.28
2022-08-25T01:11:08.384Z,102084.28
2022-08-25T01:14:18.934Z,102092.28
2022-08-25T01:17:23.397Z,102091.34
2022-08-25T01:20:31.529Z,102074.72
2022-08-25T01:23:36.288Z,102067.97
2022-08-25T01:26:40.642Z,102078.53
2022-08-25T01:29:45.019Z,102091.19
2022-08-25T01:32:49.454Z,102083.84
2022-08-25T01:35:54.680Z,102089.19
2022-08-25T01:39:00.154Z,102090.25
2022-08-25T01:42:13.348Z,102081.50
2022-08-25T01:45:17.664Z,102085.88
2022-08-25T01:48:22.048Z,102082.47
2022-08-25T01:51:33.252Z,102077.53
2022-08-25T01:54:38.490Z,102075.63
2022-08-25T01:57:43.139Z,102077.44
2022-08-25T02:00:49.923Z,102079.25
2022-08-25T02:03:56.266Z,102083.06
2022-08-25T02:07:06.729Z,102087.63
2022-08-25T02:10:13.781Z,102085.91
2022-08-25T02:13:20.818Z,102084.00
2022-08-25T02:16:36.732Z,102082.41
2022-08-25T02:19:40.878Z,102079.06
2022-08-25T02:22:56.608Z,102072.41
2022-08-25T02:26:01.151Z,102076.59
2022-08-25T02:29:08.096Z,102076.59
2022-08-25T02:32:12.365Z,102074.13
2022-08-25T02:35:17.259Z,102088.78
2022-08-25T02:38:21.709Z,102099.41
2022-08-25T02:41:31.102Z,102098.69
2022-08-25T02:44:35.702Z,102088.13
2022-08-25T02:47:41.742Z,102087.28
2022-08-25T02:50:52.581Z,102088.50
2022-08-25T02:54:00.005Z,102078.28
2022-08-25T02:57:04.887Z,102080.63
2022-08-25T03:00:13.892Z,102079.88
2022-08-25T03:03:20.025Z,102086.56
2022-08-25T03:06:25.261Z,102074.94
2022-08-25T03:09:29.431Z,102083.91
2022-08-25T03:12:39.122Z,102070.41
2022-08-25T03:15:44.590Z,102071.53
2022-08-25T03:18:49.579Z,102069.06
2022-08-25T03:21:56.268Z,102068.31
2022-08-25T03:25:23.570Z,102064.91
2022-08-25T03:28:32.987Z,102055.22
2022-08-25T03:31:38.248Z,102062.44
2022-08-25T03:34:42.400Z,102061.47
2022-08-25T03:37:47.021Z,102050.28
2022-08-25T03:40:52.651Z,102054.66
2022-08-25T03:43:58.246Z,102051.91
2022-08-25T03:47:03.022Z,102062.72
2022-08-25T03:50:10.587Z,102067.97
2022-08-25T03:53:15.255Z,102046.31
2022-08-25T03:56:20.219Z,102054.28
2022-08-25T03:59:25.678Z,102043.84
2022-08-25T04:02:33.675Z,102044.88
2022-08-25T04:05:38.306Z,102044.97
2022-08-25T04:08:43.013Z,102040.81
2022-08-25T04:11:47.598Z,102038.72
2022-08-25T04:14:57.587Z,102037.00
2022-08-25T04:18:01.996Z,102036.06
2022-08-25T04:21:09.844Z,102038.81
2022-08-25T04:24:15.079Z,102034.56
2022-08-25T04:27:19.237Z,102048.59
2022-08-25T04:30:23.883Z,102042.53
2022-08-25T04:33:29.117Z,102036.06
2022-08-25T04:36:34.542Z,102047.84
2022-08-25T04:39:39.236Z,102060.09
2022-08-25T04:42:44.982Z,102056.41
2022-08-25T04:45:52.735Z,102063.91
2022-08-25T04:48:58.975Z,102065.59
2022-08-25T04:52:04.237Z,102069.03
2022-08-25T04:55:08.943Z,102061.06
2022-08-25T04:58:16.529Z,102060.47
2022-08-25T05:01:25.360Z,102057.53
2022-08-25T05:04:31.182Z,102059.25
2022-08-25T05:07:35.421Z,102059.34
2022-08-25T05:10:41.058Z,102046.88
2022-08-25T05:13:51.357Z,102047.06
2022-08-25T05:16:57.574Z,102040.63
2022-08-25T05:20:02.535Z,102043.94
2022-08-25T05:23:06.987Z,102052.56
2022-08-25T05:26:20.328Z,102053.34
2022-08-25T05:29:25.829Z,102056.13
2022-08-25T05:32:30.295Z,102055.41
2022-08-25T05:35:35.878Z,102063.78
2022-08-25T05:38:41.763Z,102063.59
2022-08-25T05:41:46.144Z,102069.78
2022-08-25T05:44:51.019Z,102066.25
2022-08-25T05:47:55.612Z,102056.16
2022-08-25T05:51:02.611Z,102061.88
2022-08-25T05:54:07.185Z,102066.22
2022-08-25T05:57:11.493Z,102063.28
2022-08-25T06:00:17.541Z,102061.28
2022-08-25T06:03:22.185Z,102064.81
2022-08-25T06:06:26.727Z,102065.09
2022-08-25T06:09:31.036Z,102055.94
2022-08-25T06:12:36.304Z,102049.56
2022-08-25T06:15:40.656Z,102046.81
2022-08-25T06:18:45.804Z,102051.81
2022-08-25T06:21:55.356Z,102055.91
2022-08-25T06:24:59.511Z,102053.59
2022-08-25T06:28:04.175Z,102045.41
2022-08-25T06:31:08.855Z,102036.28
2022-08-25T06:34:14.025Z,102043.88
2022-08-25T06:37:20.376Z,102028.44
2022-08-25T06:40:28.844Z,102037.75
2022-08-25T06:43:34.271Z,102027.44
2022-08-25T06:46:39.011Z,102030.63
2022-08-25T06:49:44.470Z,102032.56
2022-08-25T06:52:48.867Z,102030.44
2022-08-25T06:56:00.521Z,102023.00
2022-08-25T06:59:09.232Z,102020.22
2022-08-25T07:02:14.074Z,102023.00
2022-08-25T07:05:40.667Z,102020.66
2022-08-25T07:08:48.156Z,102019.81
2022-08-25T07:11:52.487Z,102027.38
2022-08-25T07:15:17.142Z,102027.69
2022-08-25T07:18:21.324Z,102024.94
2022-08-25T07:21:32.635Z,102027.28
2022-08-25T07:24:38.278Z,102031.22
2022-08-25T07:27:42.619Z,102028.09
2022-08-25T07:30:51.716Z,102029.38
2022-08-25T07:34:16.407Z,102026.38
2022-08-25T07:37:47.583Z,102037.16
2022-08-25T07:40:54.587Z,102035.81
2022-08-25T07:44:01.489Z,102031.88
2022-08-25T07:47:05.781Z,102027.16
2022-08-25T07:50:13.172Z,102024.06
2022-08-25T07:53:19.279Z,102020.69
2022-08-25T07:56:23.803Z,102010.47
2022-08-25T07:59:28.783Z,102014.09
2022-08-25T08:02:33.599Z,102010.47
2022-08-25T08:05:41.624Z,102008.53
2022-08-25T08:08:49.330Z,102013.88
2022-08-25T08:11:55.692Z,102012.78
2022-08-25T08:15:00.557Z,102010.88
2022-08-25T08:18:07.220Z,102016.81
2022-08-25T08:21:24.457Z,102002.75
2022-08-25T08:24:44.711Z,102009.16
2022-08-25T08:27:56.749Z,102016.19
2022-08-25T08:31:01.399Z,102017.88
2022-08-25T08:34:06.455Z,102027.28
2022-08-25T08:37:10.954Z,102032.16
2022-08-25T08:40:19.651Z,102031.06
2022-08-25T08:43:25.028Z,102035.00
2022-08-25T08:46:49.216Z,102014.34
2022-08-25T08:50:01.161Z,101980.59
2022-08-25T08:53:52.754Z,101969.69
2022-08-25T08:57:17.974Z,101974.56
2022-08-25T09:00:22.827Z,101976.00
2022-08-25T09:03:55.270Z,101980.88
2022-08-25T09:07:02.897Z,101979.94
2022-08-25T09:10:08.383Z,101967.56
2022-08-25T09:13:36.578Z,101954.56
2022-08-25T09:16:57.674Z,101956.28
2022-08-25T09:20:38.869Z,101929.84
2022-08-25T09:24:12.481Z,101935.41
2022-08-25T09:28:05.398Z,101932.38
2022-08-25T09:31:29.208Z,101908.78
2022-08-25T09:34:35.195Z,101934.31
2022-08-25T09:37:40.132Z,101932.00
2022-08-25T09:40:49.019Z,101921.91
2022-08-25T09:43:54.603Z,101918.38
2022-08-25T09:47:29.895Z,101886.28
2022-08-25T09:50:37.557Z,101900.47
2022-08-25T09:54:18.079Z,101909.31
2022-08-25T09:57:49.205Z,101906.75
2022-08-25T10:01:20.854Z,101889.59
2022-08-25T10:04:28.711Z,101899.16
2022-08-25T10:07:48.047Z,101895.16
2022-08-25T10:10:59.387Z,101869.28
2022-08-25T10:14:38.808Z,101905.13
2022-08-25T10:17:50.319Z,101868.31
2022-08-25T10:21:17.515Z,101855.38
2022-08-25T10:24:24.160Z,101883.25
2022-08-25T10:27:59.619Z,101841.78
2022-08-25T10:31:22.336Z,101846.03
2022-08-25T10:34:45.146Z,101807.44
2022-08-25T10:38:34.781Z,101805.50
2022-08-25T10:42:08.986Z,101803.38
2022-08-25T10:45:43.731Z,101786.50
2022-08-25T10:48:57.291Z,101785.22
2022-08-25T10:52:07.593Z,101784.31
2022-08-25T10:55:40.365Z,101789.03
2022-08-25T10:59:09.263Z,101772.16
2022-08-25T11:02:44.930Z,101727.19
2022-08-25T11:05:51.891Z,101700.28
2022-08-25T11:09:05.325Z,101695.88
2022-08-25T11:12:32.280Z,101725.97
2022-08-25T11:16:17.513Z,101750.41
2022-08-25T11:19:35.392Z,101728.47
2022-08-25T11:22:46.064Z,101701.56
2022-08-25T11:26:04.460Z,101741.91
2022-08-25T11:29:18.188Z,101739.81
2022-08-25T11:32:24.796Z,101748.97
2022-08-25T11:35:51.176Z,101719.63
2022-08-25T11:39:37.436Z,101709.78
2022-08-25T11:43:14.592Z,101704.28
2022-08-25T11:46:27.837Z,101701.13
2022-08-25T11:50:18.711Z,101728.44
2022-08-25T11:53:42.318Z,101711.72
2022-08-25T11:57:06.517Z,101699.56
2022-08-25T12:00:34.080Z,101691.22
2022-08-25T12:03:41.522Z,101694.97
2022-08-25T12:07:10.948Z,101683.56
2022-08-25T12:10:23.758Z,101664.75
2022-08-25T12:13:51.193Z,101644.03
2022-08-25T12:16:56.442Z,101635.13
2022-08-25T12:20:01.371Z,101609.56
2022-08-25T12:23:07.127Z,101595.50
2022-08-25T12:26:26.434Z,101600.25
2022-08-25T12:29:45.243Z,101558.78
2022-08-25T12:33:17.651Z,101558.53
2022-08-25T12:36:33.542Z,101543.69
2022-08-25T12:39:55.932Z,101520.13
2022-08-25T12:43:19.867Z,101507.22
2022-08-25T12:46:27.744Z,101498.84
2022-08-25T12:49:35.832Z,101492.47
2022-08-25T12:52:40.685Z,101489.78
2022-08-25T12:55:52.237Z,101478.16
2022-08-25T12:59:02.766Z,101479.66
2022-08-25T13:03:14.151Z,101487.81
2022-08-25T13:06:46.640Z,101485.59
2022-08-25T13:10:44.349Z,101478.44
2022-08-25T13:14:01.056Z,101479.34
2022-08-25T13:17:09.576Z,101462.84
2022-08-25T13:20:23.436Z,101447.22
2022-08-25T13:23:30.143Z,101447.06
2022-08-25T13:26:47.160Z,101452.56
2022-08-25T13:29:59.005Z,101429.91
2022-08-25T13:33:23.922Z,101432.28
2022-08-25T13:37:02.792Z,101426.69
2022-08-25T13:40:30.445Z,101423.53
2022-08-25T13:43:38.751Z,101420.78
2022-08-25T13:46:45.419Z,101430.50
2022-08-25T13:49:50.742Z,101426.34
2022-08-25T13:53:03.833Z,101443.50
2022-08-25T13:56:10.483Z,101439.56
2022-08-25T13:59:35.239Z,101417.19
2022-08-25T14:02:50.113Z,101418.66
2022-08-25T14:06:15.301Z,101422.50
2022-08-25T14:09:27.952Z,101423.03
2022-08-25T14:12:46.215Z,101416.97
2022-08-25T14:15:50.558Z,101400.84
2022-08-25T14:18:58.869Z,101406.13
2022-08-25T14:22:04.480Z,101412.19
2022-08-25T14:25:09.092Z,101396.06
2022-08-25T14:28:22.293Z,101378.94
2022-08-25T14:31:33.646Z,101384.31
2022-08-25T14:34:39.673Z,101364.47
2022-08-25T14:37:46.617Z,101371.53
2022-08-25T14:40:52.236Z,101365.81
2022-08-25T14:43:56.808Z,101370.16
2022-08-25T14:47:02.830Z,101363.75
2022-08-25T14:50:14.520Z,101366.81
2022-08-25T14:53:25.765Z,101367.44
2022-08-25T14:56:32.395Z,101359.38
2022-08-25T14:59:37.026Z,101368.28
2022-08-25T15:02:50.343Z,101359.72
2022-08-25T15:05:57.898Z,101342.94
2022-08-25T15:09:08.025Z,101342.56
2022-08-25T15:12:17.741Z,101331.84
2022-08-25T15:15:28.659Z,101331.84
2022-08-25T15:18:33.446Z,101339.59
2022-08-25T15:21:38.027Z,101328.50
2022-08-25T15:24:43.432Z,101333.34
2022-08-25T15:27:49.523Z,101314.53
2022-08-25T15:30:54.208Z,101324.13
2022-08-25T15:33:59.383Z,101306.53
2022-08-25T15:37:21.899Z,101326.13
2022-08-25T15:40:28.336Z,101327.16
2022-08-25T15:43:33.045Z,101323.09
2022-08-25T15:46:39.491Z,101332.44
2022-08-25T15:49:44.541Z,101325.09
2022-08-25T15:52:49.870Z,101326.25
2022-08-25T15:55:57.501Z,101316.63
2022-08-25T15:59:09.555Z,101318.50
2022-08-25T16:02:15.232Z,101327.91
2022-08-25T16:05:25.796Z,101339.72
2022-08-25T16:08:31.298Z,101329.66
2022-08-25T16:11:38.667Z,101348.78
2022-08-25T16:14:43.147Z,101350.28
2022-08-25T16:17:51.229Z,101355.75
2022-08-25T16:20:55.822Z,101357.41
2022-08-25T16:24:07.495Z,101369.47
2022-08-25T16:27:13.226Z,101352.91
2022-08-25T16:30:18.176Z,101350.38
2022-08-25T16:33:28.927Z,101359.41
2022-08-25T16:36:38.985Z,101366.78
2022-08-25T16:39:45.806Z,101371.16
2022-08-25T16:42:50.490Z,101368.19
2022-08-25T16:46:02.057Z,101374.06
2022-08-25T16:49:07.311Z,101399.44
2022-08-25T16:52:30.740Z,101392.06
2022-08-25T16:55:39.215Z,101392.31
2022-08-25T16:58:45.729Z,101396.09
2022-08-25T17:01:51.141Z,101408.09
2022-08-25T17:05:09.313Z,101390.19
2022-08-25T17:08:29.379Z,101387.88
2022-08-25T17:11:49.082Z,101388.84
2022-08-25T17:14:54.104Z,101398.84
2022-08-25T17:17:58.854Z,101417.53
2022-08-25T17:21:08.875Z,101429.19
2022-08-25T17:24:14.324Z,101449.25
2022-08-25T17:27:19.127Z,101456.75
2022-08-25T17:30:23.886Z,101439.97
2022-08-25T17:33:30.117Z,101456.34
2022-08-25T17:36:35.951Z,101467.69
2022-08-25T17:39:40.785Z,101471.22
2022-08-25T17:42:45.334Z,101463.88
2022-08-25T17:45:51.644Z,101477.47
2022-08-25T17:48:56.316Z,101486.78
2022-08-25T17:52:02.392Z,101491.06
2022-08-25T17:55:08.699Z,101504.63
2022-08-25T17:58:17.144Z,101506.03
2022-08-25T18:01:28.725Z,101519.63
2022-08-25T18:04:33.282Z,101503.25
2022-08-25T18:07:38.142Z,101514.84
2022-08-25T18:10:42.861Z,101514.25
2022-08-25T18:13:47.821Z,101516.53
2022-08-25T18:16:55.210Z,101515.97
2022-08-25T18:20:02.352Z,101510.31
2022-08-25T18:23:11.046Z,101526.09
2022-08-25T18:26:16.333Z,101509.19
2022-08-25T18:29:21.069Z,101516.22
2022-08-25T18:32:26.109Z,101511.44
2022-08-25T18:35:30.790Z,101521.03
2022-08-25T18:38:57.780Z,101525.09
2022-08-25T18:42:05.984Z,101532.81
2022-08-25T18:45:12.459Z,101541.84
2022-08-25T18:48:20.200Z,101542.97
2022-08-25T18:51:25.338Z,101560.44
2022-08-25T18:54:29.513Z,101565.63
2022-08-25T18:57:37.757Z,101564.28
2022-08-25T19:00:45.681Z,101555.69
2022-08-25T19:03:51.077Z,101566.25
2022-08-25T19:06:55.567Z,101563.09
2022-08-25T19:10:00.190Z,101567.00
2022-08-25T19:13:08.259Z,101566.84
2022-08-25T19:16:29.983Z,101574.41
2022-08-25T19:19:34.624Z,101585.63
2022-08-25T19:22:41.975Z,101581.81
2022-08-25T19:25:46.755Z,101580.63
2022-08-25T19:28:52.736Z,101581.63
2022-08-25T19:32:01.129Z,101575.53
2022-08-25T19:35:37.478Z,101578.63
2022-08-25T19:38:44.211Z,101581.44
2022-08-25T19:41:49.155Z,101585.13
2022-08-25T19:44:54.981Z,101579.78
2022-08-25T19:47:59.815Z,101581.28
2022-08-25T19:51:04.824Z,101586.63
2022-08-25T19:54:12.804Z,101584.44
2022-08-25T19:57:28.445Z,101578.66
2022-08-25T20:00:41.858Z,101578.91
2022-08-25T20:03:46.169Z,101584.63
2022-08-25T20:06:50.596Z,101592.53
2022-08-25T20:09:56.216Z,101596.16
2022-08-25T20:13:01.479Z,101597.16
2022-08-25T20:16:07.079Z,101595.69
2022-08-25T20:19:11.922Z,101591.09
2022-08-25T20:22:18.197Z,101591.97
2022-08-25T20:25:26.541Z,101587.97
2022-08-25T20:28:42.331Z,101596.81
2022-08-25T20:31:47.712Z,101583.75
2022-08-25T20:34:55.638Z,101591.63
2022-08-25T20:38:01.033Z,101593.81
2022-08-25T20:41:09.815Z,101590.44
2022-08-25T20:44:14.922Z,101599.41
2022-08-25T20:47:21.113Z,101598.44
2022-08-25T20:50:26.034Z,101588.72
2022-08-25T20:53:30.758Z,101594.59
2022-08-25T20:56:35.037Z,101596.19
2022-08-25T20:59:39.468Z,101592.91
2022-08-25T21:02:46.263Z,101580.28
2022-08-25T21:05:54.022Z,101588.53
2022-08-25T21:08:58.737Z,101588.81
2022-08-25T21:12:06.966Z,101584.69
2022-08-25T21:15:13.727Z,101584.34
2022-08-25T21:18:23.020Z,101588.56
2022-08-25T21:21:27.779Z,101593.41
2022-08-25T21:24:32.734Z,101588.19
2022-08-25T21:27:37.242Z,101594.63
2022-08-25T21:30:44.822Z,101581.78
2022-08-25T21:33:57.373Z,101592.19
2022-08-25T21:37:02.415Z,101583.72
2022-08-25T21:40:07.445Z,101582.72
2022-08-25T21:43:12.826Z,101584.81
2022-08-25T21:46:21.885Z,101583.97
2022-08-25T21:49:26.512Z,101589.53
2022-08-25T21:52:31.371Z,101589.31
2022-08-25T21:55:41.925Z,101586.75
2022-08-25T21:58:49.103Z,101589.53
2022-08-25T22:02:03.179Z,101585.91
2022-08-25T22:05:11.100Z,101578.16
2022-08-25T22:08:16.733Z,101586.16
2022-08-25T22:11:24.780Z,101581.78
2022-08-25T22:14:29.342Z,101583.50
2022-08-25T22:17:33.506Z,101585.91
2022-08-25T22:20:39.272Z,101584.22
2022-08-25T22:23:46.074Z,101583.25
2022-08-25T22:26:50.892Z,101574.97
2022-08-25T22:29:55.605Z,101576.44
2022-08-25T22:33:01.178Z,101567.47
2022-08-25T22:36:30.108Z,101565.75
2022-08-25T22:39:34.663Z,101567.47
2022-08-25T22:42:39.147Z,101566.72
2022-08-25T22:45:45.169Z,101567.97
2022-08-25T22:48:51.544Z,101560.66
2022-08-25T22:51:56.118Z,101565.03
2022-08-25T22:55:01.644Z,101558.72
2022-08-25T22:58:06.162Z,101550.59
2022-08-25T23:01:17.247Z,101553.38
2022-08-25T23:04:22.080Z,101555.22
2022-08-25T23:07:28.210Z,101557.88
2022-08-25T23:10:32.843Z,101544.66
2022-08-25T23:13:38.923Z,101536.53
2022-08-25T23:16:46.521Z,101539.19
2022-08-25T23:19:51.369Z,101542.81
2022-08-25T23:22:56.638Z,101542.69
2022-08-25T23:26:01.036Z,101540.03
2022-08-25T23:29:07.825Z,101541.28
2022-08-25T23:32:23.605Z,101539.56
2022-08-25T23:35:32.539Z,101532.78
2022-08-25T23:38:39.254Z,101531.81
2022-08-25T23:41:44.020Z,101531.09
2022-08-25T23:44:49.417Z,101514.00
2022-08-25T23:47:54.031Z,101525.75
2022-08-25T23:51:00.751Z,101516.78
2022-08-25T23:54:10.814Z,101507.78
2022-08-25T23:57:16.197Z,101517.75
